Private Wetterstation Sandau
Wetterdaten: Montag, 10.12.2012
Datum Zeit Temp. A. Feuchte A. Luftdruck Regen Wind Richtung Richtung Taupunkt Windchill
10.12.2012 00:01 0,9 C 92 % 1000,4 hPa 0,0 l/m 2,5 km/h (1 Bft) S-SO 157 -0,2 C 0,9 C
10.12.2012 00:06 0,8 C 92 % 1000,1 hPa 0,0 l/m 5,8 km/h (2 Bft) S 180 -0,3 C -1,0 C
10.12.2012 00:11 0,8 C 92 % 1000,2 hPa 0,0 l/m 3,6 km/h (1 Bft) SW 225 -0,3 C 0,8 C
10.12.2012 00:16 0,8 C 92 % 1000,1 hPa 0,0 l/m 7,6 km/h (2 Bft) SO 135 -0,3 C -1,7 C
10.12.2012 00:21 0,8 C 92 % 1000,2 hPa 0,0 l/m 8,3 km/h (2 Bft) S-SO 157 -0,3 C -1,9 C
10.12.2012 00:26 0,7 C 92 % 1000,0 hPa 0,0 l/m 1,1 km/h (1 Bft) S 180 -0,4 C 0,7 C
10.12.2012 00:31 0,7 C 92 % 1000,0 hPa 0,0 l/m 6,8 km/h (2 Bft) S-SO 157 -0,4 C -1,5 C
10.12.2012 00:36 0,7 C 92 % 1000,1 hPa 0,0 l/m 9,7 km/h (2 Bft) S 180 -0,4 C -2,4 C
10.12.2012 00:41 0,6 C 92 % 999,9 hPa 0,0 l/m 3,2 km/h (1 Bft) S 180 -0,5 C 0,6 C
10.12.2012 00:46 0,6 C 92 % 999,9 hPa 0,0 l/m 2,5 km/h (1 Bft) S-SW 202 -0,5 C 0,6 C
10.12.2012 00:51 0,6 C 92 % 999,7 hPa 0,0 l/m 2,9 km/h (1 Bft) S 180 -0,5 C 0,6 C
10.12.2012 00:56 0,6 C 92 % 999,8 hPa 0,0 l/m 7,9 km/h (2 Bft) S-SO 157 -0,5 C -2,0 C
10.12.2012 01:01 0,6 C 92 % 999,7 hPa 0,0 l/m 5,4 km/h (1 Bft) W-SW 247 -0,5 C -1,1 C
10.12.2012 01:06 0,6 C 92 % 999,7 hPa 0,0 l/m 0,0 km/h (0 Bft) S-SW 202 -0,5 C 0,6 C
10.12.2012 01:11 0,6 C 92 % 999,8 hPa 0,0 l/m 6,5 km/h (2 Bft) S 180 -0,5 C -1,5 C
10.12.2012 01:16 0,6 C 92 % 999,8 hPa 0,0 l/m 9,4 km/h (2 Bft) SW 225 -0,5 C -2,4 C
10.12.2012 01:21 0,7 C 93 % 999,4 hPa 0,0 l/m 5,8 km/h (2 Bft) W-SW 247 -0,3 C -1,1 C
10.12.2012 01:26 0,8 C 93 % 999,6 hPa 0,0 l/m 5,4 km/h (1 Bft) S-SW 202 -0,2 C -0,9 C
10.12.2012 01:31 0,8 C 93 % 999,6 hPa 0,0 l/m 12,6 km/h (3 Bft) S-SW 202 -0,2 C -3,0 C
10.12.2012 01:36 0,9 C 93 % 999,4 hPa 0,0 l/m 7,2 km/h (2 Bft) S-SW 202 -0,1 C -1,4 C
10.12.2012 01:41 0,9 C 93 % 999,5 hPa 0,0 l/m 8,6 km/h (2 Bft) S 180 -0,1 C -1,9 C
10.12.2012 01:46 0,9 C 93 % 999,5 hPa 0,0 l/m 14,4 km/h (3 Bft) W-SW 247 -0,1 C -3,2 C
10.12.2012 01:51 0,9 C 93 % 999,3 hPa 0,0 l/m 13,3 km/h (3 Bft) SW 225 -0,1 C -3,0 C
10.12.2012 01:56 0,9 C 93 % 999,3 hPa 0,0 l/m 10,4 km/h (2 Bft) W-SW 247 -0,1 C -2,3 C
10.12.2012 02:01 0,9 C 93 % 999,4 hPa 0,0 l/m 8,3 km/h (2 Bft) W-SW 247 -0,1 C -1,8 C
10.12.2012 02:06 0,9 C 93 % 999,2 hPa 0,0 l/m 9,4 km/h (2 Bft) S 180 -0,1 C -2,1 C
10.12.2012 02:11 1,0 C 93 % 999,3 hPa 0,0 l/m 7,2 km/h (2 Bft) S-SW 202 -0,0 C -1,3 C
10.12.2012 02:16 0,9 C 93 % 999,4 hPa 0,0 l/m 7,2 km/h (2 Bft) S 180 -0,1 C -1,4 C
10.12.2012 02:21 1,0 C 93 % 999,4 hPa 0,0 l/m 8,3 km/h (2 Bft) SW 225 -0,0 C -1,7 C
10.12.2012 02:26 1,0 C 93 % 999,3 hPa 0,0 l/m 6,1 km/h (2 Bft) W-SW 247 -0,0 C -0,9 C
10.12.2012 02:31 1,0 C 93 % 999,3 hPa 0,0 l/m 5,8 km/h (2 Bft) SW 225 -0,0 C -0,8 C
10.12.2012 02:36 1,1 C 93 % 999,3 hPa 0,0 l/m 7,2 km/h (2 Bft) S-SW 202 0,1 C -1,2 C
10.12.2012 02:41 1,1 C 93 % 999,3 hPa 0,0 l/m 4,3 km/h (1 Bft) S 180 0,1 C 1,1 C
10.12.2012 02:46 1,1 C 93 % 999,1 hPa 0,0 l/m 5,0 km/h (1 Bft) SW 225 0,1 C -0,3 C
10.12.2012 02:51 1,1 C 93 % 999,0 hPa 0,0 l/m 4,7 km/h (1 Bft) SW 225 0,1 C -0,2 C
10.12.2012 02:56 1,2 C 93 % 999,1 hPa 0,0 l/m 9,0 km/h (2 Bft) S-SW 202 0,2 C -1,6 C
10.12.2012 03:01 1,2 C 93 % 999,2 hPa 0,0 l/m 10,4 km/h (2 Bft) SW 225 0,2 C -2,0 C
10.12.2012 03:06 1,3 C 93 % 999,2 hPa 0,0 l/m 11,9 km/h (2 Bft) SW 225 0,3 C -2,2 C
10.12.2012 03:11 1,3 C 93 % 999,1 hPa 0,0 l/m 13,3 km/h (3 Bft) SW 225 0,3 C -2,5 C
10.12.2012 03:16 1,3 C 93 % 999,2 hPa 0,0 l/m 8,6 km/h (2 Bft) S-SW 202 0,3 C -1,4 C
10.12.2012 03:21 1,3 C 93 % 999,3 hPa 0,0 l/m 4,3 km/h (1 Bft) SW 225 0,3 C 1,3 C
10.12.2012 03:26 1,3 C 93 % 999,3 hPa 0,0 l/m 8,6 km/h (2 Bft) SW 225 0,3 C -1,4 C
10.12.2012 03:31 1,3 C 93 % 999,1 hPa 0,0 l/m 5,8 km/h (2 Bft) W 270 0,3 C -0,5 C
10.12.2012 03:36 1,3 C 93 % 999,0 hPa 0,0 l/m 4,3 km/h (1 Bft) SW 225 0,3 C 1,3 C
10.12.2012 03:41 1,3 C 93 % 999,0 hPa 0,0 l/m 4,3 km/h (1 Bft) W-SW 247 0,3 C 1,3 C
10.12.2012 03:46 1,3 C 93 % 999,0 hPa 0,0 l/m 6,8 km/h (2 Bft) SW 225 0,3 C -0,8 C
10.12.2012 03:51 1,3 C 93 % 999,0 hPa 0,0 l/m 7,2 km/h (2 Bft) SW 225 0,3 C -1,0 C
10.12.2012 03:56 1,3 C 93 % 999,1 hPa 0,0 l/m 7,2 km/h (2 Bft) SW 225 0,3 C -1,0 C
10.12.2012 04:01 1,3 C 93 % 999,1 hPa 0,0 l/m 4,0 km/h (1 Bft) S-SW 202 0,3 C 1,3 C
10.12.2012 04:06 1,3 C 93 % 999,1 hPa 0,0 l/m 3,6 km/h (1 Bft) S-SW 202 0,3 C 1,3 C
10.12.2012 04:11 1,3 C 93 % 999,1 hPa 0,0 l/m 4,7 km/h (1 Bft) SW 225 0,3 C 0,0 C
10.12.2012 04:16 1,3 C 93 % 999,3 hPa 0,0 l/m 4,3 km/h (1 Bft) S-SW 202 0,3 C 1,3 C
10.12.2012 04:21 1,3 C 93 % 999,3 hPa 0,0 l/m 6,1 km/h (2 Bft) SW 225 0,3 C -0,6 C
10.12.2012 04:26 1,3 C 93 % 999,3 hPa 0,0 l/m 0,0 km/h (0 Bft) S-SW 202 0,3 C 1,3 C
10.12.2012 04:31 1,3 C 93 % 999,2 hPa 0,0 l/m 0,0 km/h (0 Bft) S-SW 202 0,3 C 1,3 C
10.12.2012 04:36 1,2 C 93 % 999,2 hPa 0,0 l/m 3,6 km/h (1 Bft) S-SW 202 0,2 C 1,2 C
10.12.2012 04:41 1,2 C 93 % 999,1 hPa 0,0 l/m 6,1 km/h (2 Bft) S-SW 202 0,2 C -0,7 C
10.12.2012 04:46 1,2 C 93 % 999,1 hPa 0,0 l/m 4,0 km/h (1 Bft) SW 225 0,2 C 1,2 C
10.12.2012 04:51 1,1 C 93 % 999,0 hPa 0,0 l/m 3,2 km/h (1 Bft) S-SW 202 0,1 C 1,1 C
10.12.2012 04:56 1,1 C 93 % 999,2 hPa 0,0 l/m 3,2 km/h (1 Bft) S-SW 202 0,1 C 1,1 C
10.12.2012 05:01 1,2 C 93 % 999,2 hPa 0,0 l/m 3,2 km/h (1 Bft) S-SW 202 0,2 C 1,2 C
10.12.2012 05:06 1,1 C 93 % 999,2 hPa 0,0 l/m 0,0 km/h (0 Bft) S-SW 202 0,1 C 1,1 C
10.12.2012 05:11 1,1 C 93 % 999,3 hPa 0,0 l/m 7,6 km/h (2 Bft) S-SW 202 0,1 C -1,3 C
10.12.2012 05:16 1,1 C 93 % 999,3 hPa 0,0 l/m 3,2 km/h (1 Bft) S-SW 202 0,1 C 1,1 C
10.12.2012 05:21 1,1 C 93 % 999,3 hPa 0,0 l/m 1,4 km/h (1 Bft) S-SW 202 0,1 C 1,1 C
10.12.2012 05:26 1,1 C 93 % 999,3 hPa 0,0 l/m 0,0 km/h (0 Bft) W-SW 247 0,1 C 1,1 C
10.12.2012 05:31 1,1 C 93 % 999,3 hPa 0,0 l/m 0,0 km/h (0 Bft) W 270 0,1 C 1,1 C
10.12.2012 05:36 1,1 C 93 % 999,4 hPa 0,0 l/m 0,0 km/h (0 Bft) N 360 0,1 C 1,1 C
10.12.2012 05:41 1,0 C 93 % 999,4 hPa 0,0 l/m 0,0 km/h (0 Bft) N 360 -0,0 C 1,0 C
10.12.2012 05:46 1,0 C 93 % 999,4 hPa 0,0 l/m 0,0 km/h (0 Bft) N 360 -0,0 C 1,0 C
10.12.2012 05:51 1,0 C 93 % 999,5 hPa 0,0 l/m 0,0 km/h (0 Bft) N 360 -0,0 C 1,0 C
10.12.2012 05:56 0,9 C 93 % 999,4 hPa 0,0 l/m 0,0 km/h (0 Bft) N 360 -0,1 C 0,9 C
10.12.2012 06:01 1,0 C 93 % 999,4 hPa 0,0 l/m 0,0 km/h (0 Bft) N 360 -0,0 C 1,0 C
10.12.2012 06:06 0,9 C 93 % 999,4 hPa 0,0 l/m 0,0 km/h (0 Bft) N 360 -0,1 C 0,9 C
10.12.2012 06:11 0,9 C 93 % 999,5 hPa 0,0 l/m 0,0 km/h (0 Bft) N 360 -0,1 C 0,9 C
10.12.2012 06:16 1,0 C 93 % 999,6 hPa 0,0 l/m 0,0 km/h (0 Bft) N 360 -0,0 C 1,0 C
10.12.2012 06:21 0,9 C 93 % 999,7 hPa 0,0 l/m 0,0 km/h (0 Bft) N 360 -0,1 C 0,9 C
10.12.2012 06:26 0,9 C 93 % 999,7 hPa 0,0 l/m 0,0 km/h (0 Bft) N 360 -0,1 C 0,9 C
10.12.2012 06:31 0,9 C 93 % 999,5 hPa 0,0 l/m 0,0 km/h (0 Bft) N 360 -0,1 C 0,9 C
10.12.2012 06:36 0,9 C 93 % 999,7 hPa 0,0 l/m 0,0 km/h (0 Bft) O-NO 67 -0,1 C 0,9 C
10.12.2012 06:41 0,9 C 93 % 999,7 hPa 0,0 l/m 0,0 km/h (0 Bft) O-NO 67 -0,1 C 0,9 C
10.12.2012 06:46 0,9 C 93 % 999,7 hPa 0,0 l/m 0,0 km/h (0 Bft) O-NO 67 -0,1 C 0,9 C
10.12.2012 06:51 0,9 C 93 % 999,8 hPa 0,0 l/m 0,0 km/h (0 Bft) SO 135 -0,1 C 0,9 C
10.12.2012 06:56 0,9 C 93 % 999,8 hPa 0,0 l/m 1,8 km/h (1 Bft) SO 135 -0,1 C 0,9 C
10.12.2012 07:01 0,9 C 93 % 999,9 hPa 0,0 l/m 0,0 km/h (0 Bft) N 360 -0,1 C 0,9 C
10.12.2012 07:06 0,9 C 93 % 999,9 hPa 0,0 l/m 1,1 km/h (1 Bft) N 360 -0,1 C 0,9 C
10.12.2012 07:11 0,9 C 93 % 1000,0 hPa 0,0 l/m 0,0 km/h (0 Bft) N 360 -0,1 C 0,9 C
10.12.2012 07:16 0,9 C 93 % 1000,2 hPa 0,0 l/m 0,0 km/h (0 Bft) N 360 -0,1 C 0,9 C
10.12.2012 07:21 0,9 C 93 % 1000,1 hPa 0,0 l/m 0,0 km/h (0 Bft) N 360 -0,1 C 0,9 C
10.12.2012 07:26 0,9 C 93 % 1000,3 hPa 0,0 l/m 2,5 km/h (1 Bft) N 360 -0,1 C 0,9 C
10.12.2012 07:31 0,9 C 93 % 1000,4 hPa 0,0 l/m 1,1 km/h (1 Bft) N 360 -0,1 C 0,9 C
10.12.2012 07:36 0,9 C 93 % 1000,5 hPa 0,0 l/m 1,1 km/h (1 Bft) N 360 -0,1 C 0,9 C
10.12.2012 07:41 0,9 C 93 % 1000,5 hPa 0,0 l/m 0,0 km/h (0 Bft) N 360 -0,1 C 0,9 C
10.12.2012 07:46 0,8 C 93 % 1000,7 hPa 0,0 l/m 0,0 km/h (0 Bft) N 360 -0,2 C 0,8 C
10.12.2012 07:51 0,9 C 93 % 1000,6 hPa 0,0 l/m 1,4 km/h (1 Bft) N-NO 22 -0,1 C 0,9 C
10.12.2012 07:56 0,8 C 93 % 1000,7 hPa 0,0 l/m 0,0 km/h (0 Bft) N-NO 22 -0,2 C 0,8 C
10.12.2012 08:01 0,8 C 93 % 1000,9 hPa 0,0 l/m 0,0 km/h (0 Bft) N-NO 22 -0,2 C 0,8 C
10.12.2012 08:06 0,8 C 93 % 1001,0 hPa 0,0 l/m 1,4 km/h (1 Bft) N-NO 22 -0,2 C 0,8 C
10.12.2012 08:11 0,8 C 93 % 1001,1 hPa 0,0 l/m 1,8 km/h (1 Bft) N-NO 22 -0,2 C 0,8 C
10.12.2012 08:16 0,7 C 93 % 1001,1 hPa 0,0 l/m 1,1 km/h (1 Bft) N-NO 22 -0,3 C 0,7 C
10.12.2012 08:21 0,7 C 93 % 1001,2 hPa 0,0 l/m 0,0 km/h (0 Bft) N-NO 22 -0,3 C 0,7 C
10.12.2012 08:26 0,7 C 93 % 1001,3 hPa 0,0 l/m 0,0 km/h (0 Bft) N-NO 22 -0,3 C 0,7 C
10.12.2012 08:31 0,8 C 93 % 1001,4 hPa 0,0 l/m 3,6 km/h (1 Bft) N-NO 22 -0,2 C 0,8 C
10.12.2012 08:36 0,8 C 93 % 1001,5 hPa 0,0 l/m 1,4 km/h (1 Bft) N-NO 22 -0,2 C 0,8 C
10.12.2012 08:41 0,8 C 93 % 1001,6 hPa 0,0 l/m 0,0 km/h (0 Bft) N-NO 22 -0,2 C 0,8 C
10.12.2012 08:46 0,9 C 93 % 1001,6 hPa 0,0 l/m 0,0 km/h (0 Bft) N-NO 22 -0,1 C 0,9 C
10.12.2012 08:51 0,8 C 94 % 1001,7 hPa 0,0 l/m 4,0 km/h (1 Bft) N-NO 22 -0,1 C 0,8 C
10.12.2012 08:56 0,8 C 94 % 1001,7 hPa 0,0 l/m 5,4 km/h (1 Bft) N-NO 22 -0,1 C -0,9 C
10.12.2012 09:01 0,8 C 94 % 1001,8 hPa 0,0 l/m 3,6 km/h (1 Bft) N 360 -0,1 C 0,8 C
10.12.2012 09:06 0,7 C 94 % 1001,9 hPa 0,0 l/m 4,0 km/h (1 Bft) N-NO 22 -0,2 C 0,7 C
10.12.2012 09:11 0,7 C 94 % 1002,2 hPa 0,0 l/m 4,0 km/h (1 Bft) N-NO 22 -0,2 C 0,7 C
10.12.2012 09:16 0,6 C 94 % 1002,0 hPa 0,0 l/m 3,6 km/h (1 Bft) N-NO 22 -0,3 C 0,6 C
10.12.2012 09:21 0,6 C 94 % 1002,2 hPa 0,0 l/m 3,2 km/h (1 Bft) N 360 -0,3 C 0,6 C
10.12.2012 09:26 0,7 C 94 % 1002,3 hPa 0,0 l/m 6,1 km/h (2 Bft) N-NO 22 -0,2 C -1,3 C
10.12.2012 09:31 0,7 C 94 % 1002,6 hPa 0,0 l/m 4,0 km/h (1 Bft) N 360 -0,2 C 0,7 C
10.12.2012 09:36 0,6 C 94 % 1002,6 hPa 0,0 l/m 2,9 km/h (1 Bft) N-NO 22 -0,3 C 0,6 C
10.12.2012 09:41 0,6 C 94 % 1002,6 hPa 0,0 l/m 4,3 km/h (1 Bft) O-NO 67 -0,3 C 0,6 C
10.12.2012 09:46 0,6 C 94 % 1002,8 hPa 0,0 l/m 6,8 km/h (2 Bft) N-NO 22 -0,3 C -1,6 C
10.12.2012 09:51 0,6 C 94 % 1002,7 hPa 0,0 l/m 4,0 km/h (1 Bft) N-NO 22 -0,3 C 0,6 C
10.12.2012 09:56 0,6 C 94 % 1002,9 hPa 0,0 l/m 5,0 km/h (1 Bft) O-NO 67 -0,3 C -0,9 C
10.12.2012 10:01 0,6 C 94 % 1003,1 hPa 0,0 l/m 2,9 km/h (1 Bft) O-NO 67 -0,3 C 0,6 C
10.12.2012 10:06 0,6 C 94 % 1003,3 hPa 0,0 l/m 3,6 km/h (1 Bft) N-NO 22 -0,3 C 0,6 C
10.12.2012 10:11 0,7 C 94 % 1003,3 hPa 0,0 l/m 5,4 km/h (1 Bft) O-NO 67 -0,2 C -1,0 C
10.12.2012 10:16 0,6 C 94 % 1003,3 hPa 0,0 l/m 3,2 km/h (1 Bft) NO 45 -0,3 C 0,6 C
10.12.2012 10:21 0,7 C 94 % 1003,5 hPa 0,0 l/m 2,2 km/h (1 Bft) NO 45 -0,2 C 0,7 C
10.12.2012 10:26 0,6 C 94 % 1003,4 hPa 0,0 l/m 4,3 km/h (1 Bft) N 360 -0,3 C 0,6 C
10.12.2012 10:31 0,6 C 94 % 1003,7 hPa 0,0 l/m 3,6 km/h (1 Bft) O-NO 67 -0,3 C 0,6 C
10.12.2012 10:36 0,6 C 94 % 1003,5 hPa 0,0 l/m 2,5 km/h (1 Bft) O-NO 67 -0,3 C 0,6 C
10.12.2012 10:41 0,5 C 94 % 1003,6 hPa 0,0 l/m 4,0 km/h (1 Bft) NO 45 -0,4 C 0,5 C
10.12.2012 10:46 0,6 C 94 % 1003,8 hPa 0,0 l/m 6,1 km/h (2 Bft) N 360 -0,3 C -1,4 C
10.12.2012 10:51 0,5 C 94 % 1003,8 hPa 0,0 l/m 2,5 km/h (1 Bft) NO 45 -0,4 C 0,5 C
10.12.2012 10:56 0,5 C 94 % 1003,9 hPa 0,0 l/m 2,2 km/h (1 Bft) NO 45 -0,4 C 0,5 C
10.12.2012 11:01 0,5 C 94 % 1004,1 hPa 0,0 l/m 4,0 km/h (1 Bft) N-NO 22 -0,4 C 0,5 C
10.12.2012 11:06 0,5 C 94 % 1004,1 hPa 0,0 l/m 2,2 km/h (1 Bft) N-NO 22 -0,4 C 0,5 C
10.12.2012 11:11 0,6 C 94 % 1004,1 hPa 0,0 l/m 4,3 km/h (1 Bft) N-NO 22 -0,3 C 0,6 C
10.12.2012 11:16 0,7 C 94 % 1004,3 hPa 0,0 l/m 1,8 km/h (1 Bft) N 360 -0,2 C 0,7 C
10.12.2012 11:21 0,8 C 94 % 1004,4 hPa 0,0 l/m 6,1 km/h (2 Bft) N-NO 22 -0,1 C -1,1 C
10.12.2012 11:26 0,8 C 94 % 1004,5 hPa 0,0 l/m 4,0 km/h (1 Bft) N 360 -0,1 C 0,8 C
10.12.2012 11:31 0,9 C 94 % 1004,4 hPa 0,0 l/m 7,2 km/h (2 Bft) N 360 0,0 C -1,4 C
10.12.2012 11:36 0,9 C 94 % 1004,6 hPa 0,0 l/m 4,3 km/h (1 Bft) N-NO 22 0,0 C 0,9 C
10.12.2012 11:41 0,9 C 94 % 1004,6 hPa 0,0 l/m 1,8 km/h (1 Bft) N-NO 22 0,0 C 0,9 C
10.12.2012 11:46 0,9 C 94 % 1004,7 hPa 0,0 l/m 11,2 km/h (2 Bft) N-NO 22 0,0 C -2,5 C
10.12.2012 11:51 0,9 C 94 % 1004,9 hPa 0,0 l/m 5,0 km/h (1 Bft) N 360 0,0 C -0,6 C
10.12.2012 11:56 0,9 C 94 % 1004,9 hPa 0,0 l/m 4,7 km/h (1 Bft) N-NO 22 0,0 C -0,4 C
10.12.2012 12:01 0,9 C 94 % 1005,0 hPa 0,0 l/m 9,4 km/h (2 Bft) N 360 0,0 C -2,1 C
10.12.2012 12:06 0,9 C 94 % 1005,0 hPa 0,0 l/m 4,3 km/h (1 Bft) N 360 0,0 C 0,9 C
10.12.2012 12:11 1,0 C 94 % 1005,0 hPa 0,0 l/m 4,0 km/h (1 Bft) NO 45 0,1 C 1,0 C
10.12.2012 12:16 1,0 C 94 % 1005,0 hPa 0,0 l/m 5,8 km/h (2 Bft) N-NO 22 0,1 C -0,8 C
10.12.2012 12:21 0,9 C 94 % 1005,1 hPa 0,0 l/m 3,6 km/h (1 Bft) N-NO 22 0,0 C 0,9 C
10.12.2012 12:26 1,0 C 94 % 1005,3 hPa 0,0 l/m 4,3 km/h (1 Bft) N 360 0,1 C 1,0 C
10.12.2012 12:31 1,0 C 94 % 1005,4 hPa 0,0 l/m 5,0 km/h (1 Bft) O-NO 67 0,1 C -0,5 C
10.12.2012 12:36 1,1 C 94 % 1005,5 hPa 0,0 l/m 10,8 km/h (2 Bft) N-NO 22 0,2 C -2,2 C
10.12.2012 12:41 1,1 C 94 % 1005,4 hPa 0,0 l/m 6,8 km/h (2 Bft) NO 45 0,2 C -1,1 C
10.12.2012 12:46 1,1 C 94 % 1005,4 hPa 0,0 l/m 3,6 km/h (1 Bft) NO 45 0,2 C 1,1 C
10.12.2012 12:51 1,1 C 94 % 1005,6 hPa 0,0 l/m 7,2 km/h (2 Bft) O-NO 67 0,2 C -1,2 C
10.12.2012 12:56 1,0 C 94 % 1005,7 hPa 0,0 l/m 5,0 km/h (1 Bft) N-NO 22 0,1 C -0,5 C
10.12.2012 13:01 1,0 C 94 % 1005,7 hPa 0,0 l/m 1,8 km/h (1 Bft) N-NO 22 0,1 C 1,0 C
10.12.2012 13:06 1,1 C 94 % 1005,7 hPa 0,0 l/m 14,0 km/h (3 Bft) N 360 0,2 C -2,9 C
10.12.2012 13:11 1,1 C 94 % 1005,9 hPa 0,0 l/m 3,6 km/h (1 Bft) NO 45 0,2 C 1,1 C
10.12.2012 13:16 1,1 C 94 % 1005,9 hPa 0,0 l/m 2,5 km/h (1 Bft) N-NO 22 0,2 C 1,1 C
10.12.2012 13:21 1,1 C 94 % 1005,8 hPa 0,0 l/m 7,9 km/h (2 Bft) N-NO 22 0,2 C -1,4 C
10.12.2012 13:26 1,0 C 94 % 1005,9 hPa 0,0 l/m 4,7 km/h (1 Bft) N-NW 337 0,1 C -0,3 C
10.12.2012 13:31 1,0 C 94 % 1006,2 hPa 0,0 l/m 9,7 km/h (2 Bft) N-NO 22 0,1 C -2,0 C
10.12.2012 13:36 0,9 C 93 % 1006,2 hPa 0,0 l/m 8,6 km/h (2 Bft) N-NW 337 -0,1 C -1,9 C
10.12.2012 13:41 0,9 C 93 % 1006,2 hPa 0,0 l/m 12,2 km/h (2 Bft) NO 45 -0,1 C -2,8 C
10.12.2012 13:46 0,9 C 93 % 1006,3 hPa 0,0 l/m 6,1 km/h (2 Bft) NO 45 -0,1 C -1,0 C
10.12.2012 13:51 0,9 C 93 % 1006,4 hPa 0,0 l/m 3,2 km/h (1 Bft) N-NO 22 -0,1 C 0,9 C
10.12.2012 13:56 0,9 C 93 % 1006,4 hPa 0,0 l/m 1,4 km/h (1 Bft) N-NO 22 -0,1 C 0,9 C
10.12.2012 14:01 0,9 C 93 % 1006,6 hPa 0,0 l/m 5,4 km/h (1 Bft) N-NO 22 -0,1 C -0,7 C
10.12.2012 14:06 0,8 C 93 % 1006,6 hPa 0,0 l/m 5,8 km/h (2 Bft) O 90 -0,2 C -1,0 C
10.12.2012 14:11 0,8 C 93 % 1006,8 hPa 0,0 l/m 7,6 km/h (2 Bft) N 360 -0,2 C -1,7 C
10.12.2012 14:16 0,7 C 93 % 1006,9 hPa 0,0 l/m 6,5 km/h (2 Bft) NO 45 -0,3 C -1,4 C
10.12.2012 14:21 0,8 C 93 % 1007,0 hPa 0,0 l/m 5,0 km/h (1 Bft) NO 45 -0,2 C -0,7 C
10.12.2012 14:26 0,7 C 93 % 1007,0 hPa 0,0 l/m 4,0 km/h (1 Bft) NO 45 -0,3 C 0,7 C
10.12.2012 14:31 0,6 C 93 % 1007,0 hPa 0,0 l/m 10,1 km/h (2 Bft) N 360 -0,4 C -2,6 C
10.12.2012 14:36 0,5 C 93 % 1007,1 hPa 0,0 l/m 8,6 km/h (2 Bft) N 360 -0,5 C -2,3 C
10.12.2012 14:41 0,4 C 93 % 1007,1 hPa 0,0 l/m 2,9 km/h (1 Bft) N-NO 22 -0,6 C 0,4 C
10.12.2012 14:46 0,4 C 93 % 1007,3 hPa 0,0 l/m 7,9 km/h (2 Bft) N 360 -0,6 C -2,2 C
10.12.2012 14:51 0,4 C 93 % 1007,6 hPa 0,0 l/m 2,5 km/h (1 Bft) NO 45 -0,6 C 0,4 C
10.12.2012 14:56 0,3 C 93 % 1007,7 hPa 0,0 l/m 0,0 km/h (0 Bft) NO 45 -0,7 C 0,3 C
10.12.2012 15:01 0,3 C 92 % 1007,8 hPa 0,0 l/m 0,0 km/h (0 Bft) N 360 -0,8 C 0,3 C
10.12.2012 15:06 0,3 C 92 % 1007,8 hPa 0,0 l/m 0,0 km/h (0 Bft) N-NO 22 -0,8 C 0,3 C
10.12.2012 15:11 0,2 C 92 % 1007,9 hPa 0,0 l/m 0,0 km/h (0 Bft) N-NO 22 -0,9 C 0,2 C
10.12.2012 15:16 0,2 C 92 % 1008,0 hPa 0,0 l/m 0,0 km/h (0 Bft) N-NO 22 -0,9 C 0,2 C
10.12.2012 15:21 0,1 C 92 % 1008,0 hPa 0,0 l/m 0,0 km/h (0 Bft) NO 45 -1,0 C 0,1 C
10.12.2012 15:26 0,1 C 92 % 1007,9 hPa 0,0 l/m 0,0 km/h (0 Bft) N 360 -1,0 C 0,1 C
10.12.2012 15:31 0,1 C 92 % 1008,1 hPa 0,0 l/m 0,0 km/h (0 Bft) N-NO 22 -1,0 C 0,1 C
10.12.2012 15:36 -0,1 C 92 % 1008,4 hPa 0,0 l/m 0,0 km/h (0 Bft) O-NO 67 -1,2 C -0,1 C
10.12.2012 15:41 -0,1 C 92 % 1008,4 hPa 0,0 l/m 0,0 km/h (0 Bft) N-NO 22 -1,2 C -0,1 C
10.12.2012 15:46 -0,1 C 92 % 1008,4 hPa 0,0 l/m 0,0 km/h (0 Bft) N-NO 22 -1,2 C -0,1 C
10.12.2012 15:51 -0,1 C 92 % 1008,4 hPa 0,0 l/m 0,0 km/h (0 Bft) N-NO 22 -1,2 C -0,1 C
10.12.2012 15:56 -0,1 C 92 % 1008,5 hPa 0,0 l/m 0,0 km/h (0 Bft) N-NO 22 -1,2 C -0,1 C
10.12.2012 16:01 -0,2 C 92 % 1008,6 hPa 0,0 l/m 0,0 km/h (0 Bft) N-NO 22 -1,3 C -0,2 C
10.12.2012 16:06 -0,2 C 92 % 1008,8 hPa 0,0 l/m 0,0 km/h (0 Bft) N-NO 22 -1,3 C -0,2 C
10.12.2012 16:11 -0,2 C 92 % 1009,0 hPa 0,0 l/m 0,0 km/h (0 Bft) N-NO 22 -1,3 C -0,2 C
10.12.2012 16:16 -0,2 C 92 % 1009,1 hPa 0,0 l/m 0,0 km/h (0 Bft) N-NO 22 -1,3 C -0,2 C
10.12.2012 16:21 -0,3 C 92 % 1009,0 hPa 0,0 l/m 0,0 km/h (0 Bft) N-NO 22 -1,4 C -0,3 C
10.12.2012 16:26 -0,3 C 92 % 1009,1 hPa 0,0 l/m 0,0 km/h (0 Bft) N-NO 22 -1,4 C -0,3 C
10.12.2012 16:31 -0,4 C 92 % 1009,2 hPa 0,0 l/m 0,0 km/h (0 Bft) N-NO 22 -1,5 C -0,4 C
10.12.2012 16:36 -0,4 C 91 % 1009,2 hPa 0,0 l/m 0,0 km/h (0 Bft) N-NO 22 -1,7 C -0,4 C
10.12.2012 16:41 -0,4 C 91 % 1009,6 hPa 0,0 l/m 0,0 km/h (0 Bft) N-NO 22 -1,7 C -0,4 C
10.12.2012 16:46 -0,4 C 91 % 1009,5 hPa 0,0 l/m 0,0 km/h (0 Bft) N-NO 22 -1,7 C -0,4 C
10.12.2012 16:51 -0,4 C 91 % 1009,5 hPa 0,0 l/m 0,0 km/h (0 Bft) N-NO 22 -1,7 C -0,4 C
10.12.2012 16:56 -0,5 C 91 % 1009,7 hPa 0,0 l/m 0,0 km/h (0 Bft) N-NO 22 -1,8 C -0,5 C
10.12.2012 17:01 -0,5 C 91 % 1009,8 hPa 0,0 l/m 0,0 km/h (0 Bft) N-NO 22 -1,8 C -0,5 C
10.12.2012 17:06 -0,6 C 91 % 1009,9 hPa 0,0 l/m 0,0 km/h (0 Bft) N-NO 22 -1,9 C -0,6 C
10.12.2012 17:11 -0,6 C 91 % 1010,0 hPa 0,0 l/m 0,0 km/h (0 Bft) N-NO 22 -1,9 C -0,6 C
10.12.2012 17:16 -0,6 C 91 % 1010,2 hPa 0,0 l/m 0,0 km/h (0 Bft) N-NO 22 -1,9 C -0,6 C
10.12.2012 17:21 -0,6 C 91 % 1010,2 hPa 0,0 l/m 0,0 km/h (0 Bft) N-NO 22 -1,9 C -0,6 C
10.12.2012 17:26 -0,7 C 91 % 1010,3 hPa 0,0 l/m 0,0 km/h (0 Bft) N-NO 22 -2,0 C -0,7 C
10.12.2012 17:31 -0,7 C 91 % 1010,4 hPa 0,0 l/m 0,0 km/h (0 Bft) N-NO 22 -2,0 C -0,7 C
10.12.2012 17:36 -0,7 C 91 % 1010,4 hPa 0,0 l/m 0,0 km/h (0 Bft) N-NO 22 -2,0 C -0,7 C
10.12.2012 17:41 -0,7 C 91 % 1010,6 hPa 0,0 l/m 0,0 km/h (0 Bft) N-NO 22 -2,0 C -0,7 C
10.12.2012 17:46 -0,7 C 91 % 1010,6 hPa 0,0 l/m 0,0 km/h (0 Bft) N-NO 22 -2,0 C -0,7 C
10.12.2012 17:51 -0,8 C 91 % 1010,7 hPa 0,0 l/m 0,0 km/h (0 Bft) N-NO 22 -2,1 C -0,8 C
10.12.2012 17:56 -0,8 C 91 % 1010,8 hPa 0,0 l/m 0,0 km/h (0 Bft) N-NO 22 -2,1 C -0,8 C
10.12.2012 18:01 -0,8 C 91 % 1010,8 hPa 0,0 l/m 0,0 km/h (0 Bft) N-NO 22 -2,1 C -0,8 C
10.12.2012 18:06 -0,8 C 91 % 1010,9 hPa 0,0 l/m 0,0 km/h (0 Bft) N-NO 22 -2,1 C -0,8 C
10.12.2012 18:11 -0,9 C 91 % 1011,0 hPa 0,0 l/m 0,0 km/h (0 Bft) N-NO 22 -2,2 C -0,9 C
10.12.2012 18:16 -0,9 C 91 % 1011,0 hPa 0,0 l/m 0,0 km/h (0 Bft) N-NO 22 -2,2 C -0,9 C
10.12.2012 18:21 -0,9 C 91 % 1011,1 hPa 0,0 l/m 0,0 km/h (0 Bft) N-NO 22 -2,2 C -0,9 C
10.12.2012 18:26 -1,0 C 91 % 1011,1 hPa 0,0 l/m 0,0 km/h (0 Bft) N-NO 22 -2,3 C -1,0 C
10.12.2012 18:31 -1,1 C 90 % 1011,4 hPa 0,0 l/m 0,0 km/h (0 Bft) N-NO 22 -2,5 C -1,1 C
10.12.2012 18:36 -1,1 C 90 % 1011,5 hPa 0,0 l/m 0,0 km/h (0 Bft) N-NO 22 -2,5 C -1,1 C
10.12.2012 18:41 -1,1 C 90 % 1011,6 hPa 0,0 l/m 0,0 km/h (0 Bft) N-NO 22 -2,5 C -1,1 C
10.12.2012 18:46 -1,2 C 90 % 1011,6 hPa 0,0 l/m 0,0 km/h (0 Bft) N-NO 22 -2,6 C -1,2 C
10.12.2012 18:51 -1,3 C 90 % 1011,7 hPa 0,0 l/m 0,0 km/h (0 Bft) N-NO 22 -2,7 C -1,3 C
10.12.2012 18:56 -1,3 C 90 % 1011,8 hPa 0,0 l/m 0,0 km/h (0 Bft) N-NO 22 -2,7 C -1,3 C
10.12.2012 19:01 -1,4 C 90 % 1011,9 hPa 0,0 l/m 0,0 km/h (0 Bft) N-NO 22 -2,8 C -1,4 C
10.12.2012 19:06 -1,4 C 90 % 1012,0 hPa 0,0 l/m 0,0 km/h (0 Bft) N-NO 22 -2,8 C -1,4 C
10.12.2012 19:11 -1,4 C 90 % 1012,1 hPa 0,0 l/m 0,0 km/h (0 Bft) N-NO 22 -2,8 C -1,4 C
10.12.2012 19:16 -1,5 C 90 % 1012,3 hPa 0,0 l/m 0,0 km/h (0 Bft) N-NO 22 -2,9 C -1,5 C
10.12.2012 19:21 -1,5 C 90 % 1012,3 hPa 0,0 l/m 0,0 km/h (0 Bft) N-NO 22 -2,9 C -1,5 C
10.12.2012 19:26 -1,5 C 90 % 1012,4 hPa 0,0 l/m 0,0 km/h (0 Bft) N-NO 22 -2,9 C -1,5 C
10.12.2012 19:31 -1,5 C 90 % 1012,4 hPa 0,0 l/m 0,0 km/h (0 Bft) N-NO 22 -2,9 C -1,5 C
10.12.2012 19:36 -1,5 C 90 % 1012,6 hPa 0,0 l/m 0,0 km/h (0 Bft) N-NO 22 -2,9 C -1,5 C
10.12.2012 19:41 -1,5 C 90 % 1012,7 hPa 0,0 l/m 0,0 km/h (0 Bft) N-NO 22 -2,9 C -1,5 C
10.12.2012 19:46 -1,5 C 90 % 1012,7 hPa 0,0 l/m 0,0 km/h (0 Bft) N-NO 22 -2,9 C -1,5 C
10.12.2012 19:51 -1,6 C 91 % 1012,9 hPa 0,0 l/m 0,0 km/h (0 Bft) N-NO 22 -2,9 C -1,6 C
10.12.2012 19:56 -1,6 C 90 % 1013,0 hPa 0,0 l/m 0,0 km/h (0 Bft) N-NO 22 -3,0 C -1,6 C
10.12.2012 20:01 -1,6 C 90 % 1013,1 hPa 0,0 l/m 0,0 km/h (0 Bft) N-NO 22 -3,0 C -1,6 C
10.12.2012 20:06 -1,7 C 90 % 1013,1 hPa 0,0 l/m 0,0 km/h (0 Bft) N-NO 22 -3,1 C -1,7 C
10.12.2012 20:11 -1,7 C 90 % 1013,3 hPa 0,0 l/m 0,0 km/h (0 Bft) N-NO 22 -3,1 C -1,7 C
10.12.2012 20:16 -1,8 C 90 % 1013,4 hPa 0,0 l/m 0,0 km/h (0 Bft) N-NO 22 -3,2 C -1,8 C
10.12.2012 20:21 -1,9 C 90 % 1013,5 hPa 0,0 l/m 0,0 km/h (0 Bft) N-NO 22 -3,3 C -1,9 C
10.12.2012 20:26 -1,9 C 90 % 1013,6 hPa 0,0 l/m 0,0 km/h (0 Bft) N-NO 22 -3,3 C -1,9 C
10.12.2012 20:31 -1,9 C 90 % 1013,8 hPa 0,0 l/m 0,0 km/h (0 Bft) N-NO 22 -3,3 C -1,9 C
10.12.2012 20:36 -1,9 C 90 % 1013,8 hPa 0,0 l/m 0,0 km/h (0 Bft) N-NO 22 -3,3 C -1,9 C
10.12.2012 20:41 -1,9 C 90 % 1013,8 hPa 0,0 l/m 0,0 km/h (0 Bft) N-NO 22 -3,3 C -1,9 C
10.12.2012 20:46 -2,0 C 90 % 1013,8 hPa 0,0 l/m 0,0 km/h (0 Bft) N-NO 22 -3,4 C -2,0 C
10.12.2012 20:51 -2,1 C 89 % 1013,9 hPa 0,0 l/m 0,0 km/h (0 Bft) N-NO 22 -3,7 C -2,1 C
10.12.2012 20:56 -2,1 C 89 % 1014,0 hPa 0,0 l/m 0,0 km/h (0 Bft) N-NO 22 -3,7 C -2,1 C
10.12.2012 21:01 -2,1 C 89 % 1014,1 hPa 0,0 l/m 0,0 km/h (0 Bft) N-NO 22 -3,7 C -2,1 C
10.12.2012 21:06 -2,1 C 89 % 1014,2 hPa 0,0 l/m 0,0 km/h (0 Bft) N-NO 22 -3,7 C -2,1 C
10.12.2012 21:11 -2,1 C 89 % 1014,4 hPa 0,0 l/m 0,0 km/h (0 Bft) N-NO 22 -3,7 C -2,1 C
10.12.2012 21:16 -2,1 C 89 % 1014,5 hPa 0,0 l/m 0,0 km/h (0 Bft) N-NO 22 -3,7 C -2,1 C
10.12.2012 21:21 -2,1 C 89 % 1014,5 hPa 0,0 l/m 0,0 km/h (0 Bft) N-NO 22 -3,7 C -2,1 C
10.12.2012 21:26 -2,1 C 89 % 1014,6 hPa 0,0 l/m 0,0 km/h (0 Bft) N-NO 22 -3,7 C -2,1 C
10.12.2012 21:31 -2,1 C 89 % 1014,7 hPa 0,0 l/m 0,0 km/h (0 Bft) N-NO 22 -3,7 C -2,1 C
10.12.2012 21:36 -2,1 C 89 % 1014,8 hPa 0,0 l/m 0,0 km/h (0 Bft) N-NO 22 -3,7 C -2,1 C
10.12.2012 21:41 -2,1 C 89 % 1014,9 hPa 0,0 l/m 0,0 km/h (0 Bft) N-NO 22 -3,7 C -2,1 C
10.12.2012 21:46 -2,1 C 89 % 1014,8 hPa 0,0 l/m 0,0 km/h (0 Bft) N-NO 22 -3,7 C -2,1 C
10.12.2012 21:51 -2,1 C 89 % 1014,9 hPa 0,0 l/m 0,0 km/h (0 Bft) N-NO 22 -3,7 C -2,1 C
10.12.2012 21:56 -2,2 C 89 % 1015,0 hPa 0,0 l/m 0,0 km/h (0 Bft) N-NO 22 -3,8 C -2,2 C
10.12.2012 22:01 -2,2 C 89 % 1015,0 hPa 0,0 l/m 0,0 km/h (0 Bft) N-NO 22 -3,8 C -2,2 C
10.12.2012 22:06 -2,2 C 89 % 1015,0 hPa 0,0 l/m 0,0 km/h (0 Bft) N-NO 22 -3,8 C -2,2 C
10.12.2012 22:11 -2,2 C 88 % 1015,0 hPa 0,0 l/m 0,0 km/h (0 Bft) N-NO 22 -3,9 C -2,2 C
10.12.2012 22:16 -2,2 C 88 % 1015,2 hPa 0,0 l/m 0,0 km/h (0 Bft) N-NO 22 -3,9 C -2,2 C
10.12.2012 22:21 -2,4 C 88 % 1015,4 hPa 0,0 l/m 0,0 km/h (0 Bft) N-NO 22 -4,1 C -2,4 C
10.12.2012 22:26 -2,4 C 88 % 1015,4 hPa 0,0 l/m 0,0 km/h (0 Bft) N-NO 22 -4,1 C -2,4 C
10.12.2012 22:31 -2,4 C 88 % 1015,5 hPa 0,0 l/m 0,0 km/h (0 Bft) N-NO 22 -4,1 C -2,4 C
10.12.2012 22:36 -2,4 C 88 % 1015,7 hPa 0,0 l/m 0,0 km/h (0 Bft) N-NO 22 -4,1 C -2,4 C
10.12.2012 22:41 -2,5 C 88 % 1015,6 hPa 0,0 l/m 0,0 km/h (0 Bft) N-NO 22 -4,2 C -2,5 C
10.12.2012 22:46 -2,5 C 88 % 1015,7 hPa 0,0 l/m 0,0 km/h (0 Bft) N-NO 22 -4,2 C -2,5 C
10.12.2012 22:51 -2,5 C 88 % 1015,9 hPa 0,0 l/m 0,0 km/h (0 Bft) N-NO 22 -4,2 C -2,5 C
10.12.2012 22:56 -2,6 C 88 % 1016,0 hPa 0,0 l/m 0,0 km/h (0 Bft) N-NO 22 -4,3 C -2,6 C
10.12.2012 23:01 -2,6 C 88 % 1016,0 hPa 0,0 l/m 0,0 km/h (0 Bft) N-NO 22 -4,3 C -2,6 C
10.12.2012 23:06 -2,6 C 88 % 1016,3 hPa 0,0 l/m 0,0 km/h (0 Bft) N-NO 22 -4,3 C -2,6 C
10.12.2012 23:11 -2,7 C 88 % 1016,3 hPa 0,0 l/m 0,0 km/h (0 Bft) N-NO 22 -4,4 C -2,7 C
10.12.2012 23:16 -2,7 C 88 % 1016,4 hPa 0,0 l/m 0,0 km/h (0 Bft) N-NO 22 -4,4 C -2,7 C
10.12.2012 23:21 -2,7 C 88 % 1016,3 hPa 0,0 l/m 0,0 km/h (0 Bft) N-NO 22 -4,4 C -2,7 C
10.12.2012 23:26 -2,8 C 88 % 1016,5 hPa 0,0 l/m 0,0 km/h (0 Bft) N-NO 22 -4,5 C -2,8 C
10.12.2012 23:31 -2,9 C 88 % 1016,5 hPa 0,0 l/m 0,0 km/h (0 Bft) N-NO 22 -4,6 C -2,9 C
10.12.2012 23:36 -3,0 C 88 % 1016,6 hPa 0,0 l/m 0,0 km/h (0 Bft) N-NO 22 -4,7 C -3,0 C
10.12.2012 23:41 -3,0 C 88 % 1016,4 hPa 0,0 l/m 0,0 km/h (0 Bft) N-NO 22 -4,7 C -3,0 C
10.12.2012 23:46 -3,1 C 88 % 1016,4 hPa 0,0 l/m 0,0 km/h (0 Bft) N-NO 22 -4,8 C -3,1 C
10.12.2012 23:51 -3,1 C 88 % 1016,7 hPa 0,0 l/m 0,0 km/h (0 Bft) N-NO 22 -4,8 C -3,1 C
10.12.2012 23:56 -3,1 C 88 % 1016,7 hPa 0,0 l/m 0,0 km/h (0 Bft) N-NO 22 -4,8 C -3,1 C
_ Min-Zeit 23:46 22:11 02:51 - 01:06 - - 23:46 01:46
Minimum _ -3,1 C 88 % 999,0 hPa - 0,0 km/h (0 Bft) - - -4,8 C -3,2 C
_ Max-Zeit 03:06 08:51 23:51 00:01 01:46 - - 03:06 03:21
Maximum _ 1,3 C 94 % 1016,7 hPa 0,0 l/m 14,4 km/h
W-SW (3 Bft)
- - 0,3 C 1,3 C
Durchschnitt _ 0,0 C 92 % 1005,8 hPa #0,0 l/m 2,7 km/h (1 Bft) N-NO - -1,1 C -0,6 C
(c) by David Heller